createdAt,value
2023-05-09T00:01:14.045Z,13.93
2023-05-09T00:03:43.884Z,14.37
2023-05-09T00:06:13.477Z,14.03
2023-05-09T00:08:41.602Z,13.90
2023-05-09T00:11:09.559Z,13.30
2023-05-09T00:13:37.433Z,13.77
2023-05-09T00:16:06.006Z,13.27
2023-05-09T00:18:34.088Z,13.07
2023-05-09T00:21:04.080Z,13.30
2023-05-09T00:23:32.068Z,13.77
2023-05-09T00:26:00.141Z,13.97
2023-05-09T00:28:28.278Z,13.50
2023-05-09T00:30:56.801Z,13.27
2023-05-09T00:33:26.838Z,13.70
2023-05-09T00:35:54.783Z,13.57
2023-05-09T00:38:24.538Z,13.20
2023-05-09T00:40:52.348Z,13.90
2023-05-09T00:43:20.107Z,13.43
2023-05-09T00:45:48.624Z,13.30
2023-05-09T00:48:17.213Z,12.50
2023-05-09T00:50:45.148Z,13.53
2023-05-09T00:53:12.943Z,14.03
2023-05-09T00:55:42.214Z,13.67
2023-05-09T00:58:10.065Z,13.60
2023-05-09T01:00:38.096Z,12.83
2023-05-09T01:03:06.468Z,13.63
2023-05-09T01:05:45.205Z,12.83
2023-05-09T01:08:22.799Z,13.73
2023-05-09T01:10:59.615Z,13.13
2023-05-09T01:13:33.161Z,12.63
2023-05-09T01:16:06.379Z,13.47
2023-05-09T01:18:41.355Z,13.23
2023-05-09T01:21:12.863Z,12.87
2023-05-09T01:24:10.400Z,12.63
2023-05-09T01:26:46.563Z,11.87
2023-05-09T01:29:36.161Z,12.70
2023-05-09T01:32:07.113Z,12.37
2023-05-09T01:34:36.083Z,12.30
2023-05-09T01:37:06.682Z,12.77
2023-05-09T01:39:37.142Z,11.73
2023-05-09T01:42:08.300Z,11.93
2023-05-09T01:44:40.976Z,11.97
2023-05-09T01:47:09.775Z,11.50
2023-05-09T01:49:39.702Z,11.30
2023-05-09T01:52:10.001Z,11.87
2023-05-09T01:54:40.139Z,11.37
2023-05-09T01:57:09.152Z,11.50
2023-05-09T01:59:42.127Z,11.70
2023-05-09T02:02:10.495Z,11.63
2023-05-09T02:04:38.946Z,11.60
2023-05-09T02:07:08.060Z,11.63
2023-05-09T02:09:35.941Z,10.57
2023-05-09T02:12:04.544Z,10.77
2023-05-09T02:14:32.906Z,11.53
2023-05-09T02:17:06.300Z,11.07
2023-05-09T02:19:35.306Z,10.93
2023-05-09T02:22:04.815Z,11.17
2023-05-09T02:24:34.153Z,11.17
2023-05-09T02:27:03.671Z,11.47
2023-05-09T02:29:39.865Z,11.40
2023-05-09T02:32:11.304Z,10.97
2023-05-09T02:34:40.404Z,11.73
2023-05-09T02:37:08.848Z,11.20
2023-05-09T02:39:37.056Z,11.53
2023-05-09T02:42:07.926Z,12.07
2023-05-09T02:44:36.229Z,11.97
2023-05-09T02:47:05.062Z,11.77
2023-05-09T02:49:34.369Z,11.67
2023-05-09T02:52:04.121Z,11.33
2023-05-09T02:54:31.895Z,11.30
2023-05-09T02:57:00.142Z,11.27
2023-05-09T02:59:28.235Z,11.43
2023-05-09T03:01:57.265Z,11.57
2023-05-09T03:04:25.829Z,11.20
2023-05-09T03:06:55.153Z,11.10
2023-05-09T03:09:23.462Z,10.80
2023-05-09T03:11:51.466Z,11.20
2023-05-09T03:14:19.294Z,11.07
2023-05-09T03:16:47.065Z,11.20
2023-05-09T03:19:23.113Z,10.63
2023-05-09T03:21:50.972Z,10.03
2023-05-09T03:24:20.294Z,10.43
2023-05-09T03:26:48.690Z,11.70
2023-05-09T03:29:16.597Z,13.20
2023-05-09T03:31:44.447Z,11.83
2023-05-09T03:34:15.235Z,11.47
2023-05-09T03:36:44.490Z,11.17
2023-05-09T03:39:14.150Z,11.27
2023-05-09T03:41:46.090Z,11.17
2023-05-09T03:44:14.364Z,13.00
2023-05-09T03:46:42.195Z,11.53
2023-05-09T03:49:10.562Z,11.97
2023-05-09T03:51:39.949Z,11.27
2023-05-09T03:54:13.412Z,11.60
2023-05-09T03:56:41.651Z,11.33
2023-05-09T03:59:11.604Z,11.17
2023-05-09T04:01:40.935Z,12.20
2023-05-09T04:04:09.536Z,11.63
2023-05-09T04:06:37.906Z,12.70
2023-05-09T04:09:07.926Z,11.63
2023-05-09T04:11:35.704Z,12.50
2023-05-09T04:14:07.108Z,19.40
2023-05-09T04:16:38.299Z,12.10
2023-05-09T04:19:07.165Z,12.80
2023-05-09T04:21:36.555Z,11.53
2023-05-09T04:24:05.818Z,11.93
2023-05-09T04:26:39.321Z,12.10
2023-05-09T04:29:10.459Z,11.97
2023-05-09T04:31:39.758Z,11.33
2023-05-09T04:34:09.355Z,11.67
2023-05-09T04:36:39.285Z,10.70
2023-05-09T04:39:08.738Z,11.23
2023-05-09T04:41:37.730Z,11.00
2023-05-09T04:44:06.233Z,11.80
2023-05-09T04:46:34.208Z,11.47
2023-05-09T04:49:03.731Z,15.27
2023-05-09T04:51:31.955Z,14.27
2023-05-09T04:54:00.197Z,13.53
2023-05-09T04:56:33.064Z,12.57
2023-05-09T04:59:03.815Z,12.47
2023-05-09T05:01:31.991Z,12.00
2023-05-09T05:04:01.058Z,11.83
2023-05-09T05:06:32.892Z,11.90
2023-05-09T05:09:01.335Z,10.77
2023-05-09T05:11:32.387Z,11.97
2023-05-09T05:14:00.611Z,11.57
2023-05-09T05:16:28.536Z,10.53
2023-05-09T05:18:56.428Z,10.20
2023-05-09T05:21:24.340Z,10.40
2023-05-09T05:23:53.891Z,10.60
2023-05-09T05:26:22.216Z,10.10
2023-05-09T05:28:55.332Z,9.40
2023-05-09T05:31:27.315Z,10.00
2023-05-09T05:33:57.775Z,9.90
2023-05-09T05:36:25.813Z,9.77
2023-05-09T05:38:54.900Z,10.70
2023-05-09T05:41:23.428Z,10.33
2023-05-09T05:43:54.107Z,9.47
2023-05-09T05:46:22.538Z,10.20
2023-05-09T05:48:50.364Z,10.03
2023-05-09T05:51:18.212Z,9.63
2023-05-09T05:53:46.855Z,9.67
2023-05-09T05:56:16.045Z,9.27
2023-05-09T05:58:43.873Z,9.50
2023-05-09T06:01:12.011Z,9.33
2023-05-09T06:03:39.916Z,10.77
2023-05-09T06:06:08.477Z,9.73
2023-05-09T06:08:36.273Z,9.90
2023-05-09T06:11:05.812Z,9.73
2023-05-09T06:13:35.078Z,10.43
2023-05-09T06:16:18.733Z,13.10
2023-05-09T06:18:49.928Z,12.77
2023-05-09T06:21:17.702Z,10.37
2023-05-09T06:23:57.741Z,10.37
2023-05-09T06:26:33.464Z,9.17
2023-05-09T06:29:02.652Z,9.37
2023-05-09T06:31:31.358Z,9.10
2023-05-09T06:33:59.232Z,12.67
2023-05-09T06:36:26.985Z,9.67
2023-05-09T06:38:54.721Z,37.10
2023-05-09T06:41:22.555Z,13.67
2023-05-09T06:43:50.367Z,11.83
2023-05-09T06:46:19.626Z,9.87
2023-05-09T06:48:47.476Z,9.57
2023-05-09T06:51:15.486Z,9.43
2023-05-09T06:53:43.251Z,8.90
2023-05-09T06:56:12.742Z,8.97
2023-05-09T06:58:40.807Z,9.13
2023-05-09T07:01:08.717Z,9.83
2023-05-09T07:03:37.921Z,9.07
2023-05-09T07:06:05.980Z,9.27
2023-05-09T07:08:33.743Z,9.10
2023-05-09T07:11:01.650Z,9.37
2023-05-09T07:13:29.392Z,9.30
2023-05-09T07:15:57.687Z,8.27
2023-05-09T07:18:25.507Z,8.77
2023-05-09T07:20:54.707Z,8.80
2023-05-09T07:23:22.499Z,8.40
2023-05-09T07:25:50.290Z,8.47
2023-05-09T07:28:19.137Z,8.30
2023-05-09T07:30:46.951Z,8.70
2023-05-09T07:33:14.771Z,8.00
2023-05-09T07:35:42.582Z,7.67
2023-05-09T07:38:12.116Z,8.20
2023-05-09T07:40:39.904Z,7.43
2023-05-09T07:43:07.711Z,7.70
2023-05-09T07:45:36.542Z,7.83
2023-05-09T07:48:04.607Z,8.27
2023-05-09T07:50:32.492Z,7.83
2023-05-09T07:53:00.448Z,7.70
2023-05-09T07:55:29.616Z,8.03
2023-05-09T07:57:57.507Z,7.77
2023-05-09T08:00:25.723Z,7.60
2023-05-09T08:02:54.009Z,7.30
2023-05-09T08:05:22.069Z,6.87
2023-05-09T08:07:49.824Z,7.87
2023-05-09T08:10:17.630Z,7.50
2023-05-09T08:12:46.826Z,7.80
2023-05-09T08:15:14.755Z,7.07
2023-05-09T08:17:42.724Z,7.13
2023-05-09T08:20:11.965Z,7.57
2023-05-09T08:22:41.171Z,7.63
2023-05-09T08:25:09.837Z,7.50
2023-05-09T08:27:37.586Z,7.77
2023-05-09T08:30:08.181Z,7.07
2023-05-09T08:32:36.125Z,7.70
2023-05-09T08:35:04.042Z,6.60
2023-05-09T08:37:31.881Z,6.57
2023-05-09T08:39:59.653Z,7.17
2023-05-09T08:42:28.540Z,6.93
2023-05-09T08:44:56.445Z,5.60
2023-05-09T08:47:26.370Z,7.13
2023-05-09T08:49:54.656Z,6.80
2023-05-09T08:52:22.922Z,6.30
2023-05-09T08:54:51.484Z,6.63
2023-05-09T08:57:19.452Z,5.80
2023-05-09T08:59:47.331Z,6.50
2023-05-09T09:02:15.926Z,6.40
2023-05-09T09:04:46.077Z,6.33
2023-05-09T09:07:16.218Z,5.77
2023-05-09T09:09:46.985Z,7.23
2023-05-09T09:12:16.388Z,6.27
2023-05-09T09:14:48.967Z,5.80
2023-05-09T09:17:20.636Z,5.90
2023-05-09T09:19:51.220Z,5.50
2023-05-09T09:22:20.812Z,6.50
2023-05-09T09:24:48.773Z,5.17
2023-05-09T09:27:16.861Z,5.20
2023-05-09T09:29:44.622Z,4.60
2023-05-09T09:32:12.479Z,4.60
2023-05-09T09:34:40.417Z,4.10
2023-05-09T09:37:09.587Z,4.13
2023-05-09T09:39:37.321Z,3.90
2023-05-09T09:42:12.128Z,4.20
2023-05-09T09:44:39.885Z,4.40
2023-05-09T09:47:11.461Z,4.30
2023-05-09T09:49:46.314Z,4.00
2023-05-09T09:52:24.011Z,4.37
2023-05-09T09:54:52.126Z,4.40
2023-05-09T09:57:35.059Z,4.87
2023-05-09T10:00:06.018Z,5.20
2023-05-09T10:02:34.020Z,5.00
2023-05-09T10:05:08.417Z,4.87
2023-05-09T10:07:37.534Z,4.20
2023-05-09T10:10:06.860Z,4.53
2023-05-09T10:12:35.577Z,3.90
2023-05-09T10:15:05.395Z,4.60
2023-05-09T10:17:33.581Z,4.30
2023-05-09T10:20:04.190Z,4.20
2023-05-09T10:22:34.316Z,4.50
2023-05-09T10:25:07.336Z,4.20
2023-05-09T10:27:37.183Z,4.50
2023-05-09T10:30:10.423Z,4.30
2023-05-09T10:32:50.732Z,4.10
2023-05-09T10:35:20.441Z,3.67
2023-05-09T10:37:49.310Z,3.90
2023-05-09T10:40:20.485Z,3.70
2023-05-09T10:42:51.252Z,3.63
2023-05-09T10:45:21.014Z,3.70
2023-05-09T10:47:50.693Z,3.43
2023-05-09T10:50:19.421Z,3.40
2023-05-09T10:53:06.201Z,3.63
2023-05-09T10:55:50.773Z,3.73
2023-05-09T10:58:24.820Z,3.73
2023-05-09T11:00:55.277Z,4.77
2023-05-09T11:03:25.861Z,5.00
2023-05-09T11:05:55.762Z,5.00
2023-05-09T11:08:26.217Z,4.60
2023-05-09T11:10:57.142Z,4.10
2023-05-09T11:13:27.420Z,4.00
2023-05-09T11:16:12.248Z,4.63
2023-05-09T11:18:53.734Z,4.50
2023-05-09T11:21:22.295Z,4.87
2023-05-09T11:23:52.410Z,5.03
2023-05-09T11:26:30.485Z,4.93
2023-05-09T11:29:00.786Z,5.47
2023-05-09T11:31:28.626Z,5.10
2023-05-09T11:34:04.815Z,5.50
2023-05-09T11:36:33.814Z,5.97
2023-05-09T11:39:05.262Z,5.80
2023-05-09T11:41:40.609Z,8.10
2023-05-09T11:44:19.087Z,8.40
2023-05-09T11:46:47.862Z,7.57
2023-05-09T11:49:17.031Z,7.70
2023-05-09T11:51:44.900Z,8.83
2023-05-09T11:54:14.824Z,8.50
2023-05-09T11:56:44.163Z,8.30
2023-05-09T11:59:14.669Z,7.23
2023-05-09T12:01:42.688Z,7.87
2023-05-09T12:04:10.613Z,8.37
2023-05-09T12:06:38.510Z,8.90
2023-05-09T12:09:06.628Z,8.37
2023-05-09T12:11:37.027Z,8.73
2023-05-09T12:14:06.383Z,8.63
2023-05-09T12:16:34.275Z,8.77
2023-05-09T12:19:02.212Z,9.60
2023-05-09T12:21:29.995Z,10.07
2023-05-09T12:23:58.137Z,9.33
2023-05-09T12:26:27.073Z,10.33
2023-05-09T12:28:55.316Z,10.43
2023-05-09T12:31:24.680Z,10.60
2023-05-09T12:33:52.808Z,9.93
2023-05-09T12:36:20.685Z,9.00
2023-05-09T12:38:55.192Z,11.20
2023-05-09T12:41:37.022Z,10.10
2023-05-09T12:44:10.006Z,8.83
2023-05-09T12:46:39.200Z,8.43
2023-05-09T12:49:07.223Z,8.80
2023-05-09T12:51:34.998Z,8.10
2023-05-09T12:54:05.424Z,8.23
2023-05-09T12:56:35.811Z,10.40
2023-05-09T12:59:03.599Z,9.03
2023-05-09T13:01:31.709Z,8.30
2023-05-09T13:04:06.198Z,9.23
2023-05-09T13:06:35.666Z,9.57
2023-05-09T13:09:06.279Z,9.27
2023-05-09T13:11:34.354Z,10.50
2023-05-09T13:14:04.151Z,10.30
2023-05-09T13:16:32.032Z,10.20
2023-05-09T13:19:01.509Z,10.30
2023-05-09T13:21:30.720Z,10.27
2023-05-09T13:23:58.568Z,10.43
2023-05-09T13:26:27.241Z,9.60
2023-05-09T13:28:55.143Z,9.73
2023-05-09T13:31:23.492Z,9.43
2023-05-09T13:33:52.121Z,9.20
2023-05-09T13:36:20.483Z,10.33
2023-05-09T13:38:49.601Z,8.43
2023-05-09T13:41:20.785Z,10.10
2023-05-09T13:43:48.667Z,9.83
2023-05-09T13:46:16.531Z,9.20
2023-05-09T13:48:44.556Z,9.47
2023-05-09T13:51:12.535Z,10.10
2023-05-09T13:53:40.499Z,10.27
2023-05-09T13:56:10.293Z,10.27
2023-05-09T13:58:38.140Z,9.60
2023-05-09T14:01:06.414Z,9.57
2023-05-09T14:03:34.448Z,9.97
2023-05-09T14:06:02.339Z,9.73
2023-05-09T14:08:30.224Z,9.27
2023-05-09T14:10:57.979Z,8.47
2023-05-09T14:13:27.340Z,8.70
2023-05-09T14:15:55.170Z,9.37
2023-05-09T14:18:23.208Z,7.73
2023-05-09T14:20:52.294Z,8.43
2023-05-09T14:23:22.292Z,7.43
2023-05-09T14:25:50.319Z,7.33
2023-05-09T14:28:18.313Z,8.40
2023-05-09T14:30:47.868Z,8.80
2023-05-09T14:33:15.977Z,7.53
2023-05-09T14:35:43.805Z,7.60
2023-05-09T14:38:13.106Z,7.03
2023-05-09T14:40:41.084Z,8.20
2023-05-09T14:43:09.590Z,7.67
2023-05-09T14:45:37.671Z,6.90
2023-05-09T14:48:07.066Z,7.37
2023-05-09T14:50:35.035Z,7.00
2023-05-09T14:53:03.712Z,7.20
2023-05-09T14:55:31.676Z,8.33
2023-05-09T14:57:59.543Z,8.10
2023-05-09T15:00:28.436Z,7.90
2023-05-09T15:02:56.819Z,7.87
2023-05-09T15:05:26.292Z,6.90
2023-05-09T15:07:54.253Z,7.27
2023-05-09T15:10:22.191Z,7.90
2023-05-09T15:12:50.069Z,7.17
2023-05-09T15:15:20.048Z,7.10
2023-05-09T15:17:48.451Z,7.40
2023-05-09T15:20:17.691Z,7.50
2023-05-09T15:22:48.759Z,7.37
2023-05-09T15:25:17.433Z,6.80
2023-05-09T15:27:45.430Z,6.63
2023-05-09T15:30:14.234Z,6.53
2023-05-09T15:32:42.259Z,6.27
2023-05-09T15:35:10.514Z,6.07
2023-05-09T15:37:38.705Z,6.33
2023-05-09T15:40:09.389Z,6.53
2023-05-09T15:42:38.635Z,5.90
2023-05-09T15:45:07.333Z,5.80
2023-05-09T15:47:35.276Z,6.30
2023-05-09T15:50:03.258Z,5.57
2023-05-09T15:52:31.203Z,5.50
2023-05-09T15:54:59.614Z,4.80
2023-05-09T15:57:28.879Z,6.40
2023-05-09T15:59:56.771Z,5.83
2023-05-09T16:02:24.767Z,5.47
2023-05-09T16:04:52.744Z,5.20
2023-05-09T16:07:20.973Z,5.70
2023-05-09T16:09:48.792Z,5.43
2023-05-09T16:12:16.621Z,5.67
2023-05-09T16:14:45.756Z,5.93
2023-05-09T16:17:13.513Z,5.53
2023-05-09T16:19:41.307Z,5.23
2023-05-09T16:22:09.088Z,5.40
2023-05-09T16:24:37.358Z,5.37
2023-05-09T16:27:05.134Z,5.00
2023-05-09T16:29:32.888Z,4.93
2023-05-09T16:32:02.220Z,4.93
2023-05-09T16:34:30.278Z,4.87
2023-05-09T16:36:58.133Z,4.93
2023-05-09T16:39:27.904Z,4.60
2023-05-09T16:41:56.295Z,4.70
2023-05-09T16:44:25.132Z,4.27
2023-05-09T16:46:53.156Z,4.67
2023-05-09T16:49:22.295Z,5.10
2023-05-09T16:51:50.091Z,5.33
2023-05-09T16:54:17.820Z,6.57
2023-05-09T16:56:45.581Z,5.40
2023-05-09T16:59:13.365Z,5.40
2023-05-09T17:01:41.899Z,5.60
2023-05-09T17:04:09.907Z,5.20
2023-05-09T17:06:39.110Z,5.70
2023-05-09T17:09:07.024Z,6.30
2023-05-09T17:11:34.838Z,6.13
2023-05-09T17:14:03.307Z,5.60
2023-05-09T17:16:31.137Z,6.03
2023-05-09T17:18:59.261Z,6.57
2023-05-09T17:21:27.732Z,5.73
2023-05-09T17:23:56.936Z,6.30
2023-05-09T17:26:25.848Z,6.30
2023-05-09T17:28:53.728Z,6.97
2023-05-09T17:31:21.598Z,6.33
2023-05-09T17:33:49.512Z,6.47
2023-05-09T17:36:17.334Z,6.90
2023-05-09T17:38:45.125Z,6.83
2023-05-09T17:41:14.342Z,6.83
2023-05-09T17:43:42.141Z,6.80
2023-05-09T17:46:10.469Z,7.60
2023-05-09T17:48:38.737Z,6.60
2023-05-09T17:51:07.083Z,6.70
2023-05-09T17:53:34.890Z,6.80
2023-05-09T17:56:02.958Z,6.33
2023-05-09T17:58:32.122Z,6.27
2023-05-09T18:00:59.937Z,6.93
2023-05-09T18:03:28.647Z,6.90
2023-05-09T18:05:57.131Z,6.70
2023-05-09T18:08:25.024Z,6.40
2023-05-09T18:10:54.506Z,6.77
2023-05-09T18:13:22.514Z,6.43
2023-05-09T18:15:53.969Z,5.83
2023-05-09T18:18:22.284Z,6.00
2023-05-09T18:20:50.253Z,6.43
2023-05-09T18:23:18.076Z,5.93
2023-05-09T18:25:45.874Z,5.47
2023-05-09T18:28:13.630Z,6.53
2023-05-09T18:30:41.473Z,7.03
2023-05-09T18:33:10.629Z,5.83
2023-05-09T18:35:38.400Z,5.33
2023-05-09T18:38:06.261Z,5.63
2023-05-09T18:40:34.031Z,6.10
2023-05-09T18:43:01.832Z,5.60
2023-05-09T18:45:30.787Z,5.90
2023-05-09T18:47:58.694Z,5.87
2023-05-09T18:50:27.863Z,5.80
2023-05-09T18:52:55.950Z,5.40
2023-05-09T18:55:24.066Z,5.90
2023-05-09T18:57:51.953Z,5.70
2023-05-09T19:00:19.864Z,5.30
2023-05-09T19:02:47.629Z,5.23
2023-05-09T19:05:15.781Z,5.40
2023-05-09T19:07:44.947Z,5.80
2023-05-09T19:10:13.168Z,5.40
2023-05-09T19:12:41.607Z,5.80
2023-05-09T19:15:10.880Z,5.50
2023-05-09T19:17:38.966Z,5.47
2023-05-09T19:20:08.374Z,5.53
2023-05-09T19:22:36.257Z,5.40
2023-05-09T19:25:05.937Z,5.60
2023-05-09T19:27:33.825Z,5.20
2023-05-09T19:30:01.869Z,5.20
2023-05-09T19:32:30.340Z,5.80
2023-05-09T19:34:58.689Z,5.50
2023-05-09T19:37:26.587Z,5.57
2023-05-09T19:39:54.360Z,5.10
2023-05-09T19:42:23.479Z,5.50
2023-05-09T19:44:52.377Z,5.50
2023-05-09T19:47:20.255Z,5.20
2023-05-09T19:49:48.024Z,5.47
2023-05-09T19:52:15.761Z,5.90
2023-05-09T19:54:43.542Z,6.53
2023-05-09T19:57:12.376Z,5.60
2023-05-09T19:59:41.495Z,6.27
2023-05-09T20:02:09.670Z,5.70
2023-05-09T20:04:37.829Z,6.23
2023-05-09T20:07:05.921Z,7.10
2023-05-09T20:09:33.669Z,8.07
2023-05-09T20:12:03.450Z,5.60
2023-05-09T20:14:31.748Z,5.40
2023-05-09T20:17:00.870Z,5.60
2023-05-09T20:19:28.813Z,5.57
2023-05-09T20:21:56.692Z,5.50
2023-05-09T20:24:24.463Z,5.80
2023-05-09T20:26:52.266Z,4.97
2023-05-09T20:29:20.154Z,5.10
2023-05-09T20:31:48.297Z,5.37
2023-05-09T20:34:19.574Z,5.37
2023-05-09T20:36:50.753Z,5.80
2023-05-09T20:39:18.713Z,5.47
2023-05-09T20:41:46.770Z,5.30
2023-05-09T20:44:15.785Z,5.47
2023-05-09T20:46:43.541Z,5.47
2023-05-09T20:49:11.547Z,4.87
2023-05-09T20:51:40.790Z,5.00
2023-05-09T20:54:08.562Z,4.60
2023-05-09T20:56:36.373Z,3.47
2023-05-09T20:59:04.635Z,3.73
2023-05-09T21:01:35.598Z,2.90
2023-05-09T21:04:03.997Z,3.10
2023-05-09T21:06:31.854Z,2.87
2023-05-09T21:09:00.945Z,2.80
2023-05-09T21:11:28.773Z,2.70
2023-05-09T21:13:56.516Z,2.67
2023-05-09T21:16:24.274Z,2.80
2023-05-09T21:18:52.054Z,2.60
2023-05-09T21:21:19.809Z,2.93
2023-05-09T21:23:47.617Z,2.90
2023-05-09T21:26:17.158Z,2.83
2023-05-09T21:28:44.919Z,2.77
2023-05-09T21:31:12.715Z,2.40
2023-05-09T21:33:40.651Z,2.53
2023-05-09T21:36:09.129Z,2.37
2023-05-09T21:38:36.896Z,2.40
2023-05-09T21:41:04.715Z,1.97
2023-05-09T21:43:33.867Z,1.90
2023-05-09T21:46:01.676Z,1.90
2023-05-09T21:48:29.593Z,1.63
2023-05-09T21:50:57.367Z,1.70
2023-05-09T21:53:25.411Z,1.90
2023-05-09T21:55:53.210Z,1.80
2023-05-09T21:58:21.008Z,1.83
2023-05-09T22:00:50.127Z,2.20
2023-05-09T22:03:17.974Z,2.10
2023-05-09T22:05:46.065Z,1.80
2023-05-09T22:08:13.872Z,1.67
2023-05-09T22:10:41.902Z,1.80
2023-05-09T22:13:09.769Z,1.50
2023-05-09T22:15:37.697Z,1.30
2023-05-09T22:18:07.095Z,1.53
2023-05-09T22:20:34.950Z,1.00
2023-05-09T22:23:03.172Z,1.33
2023-05-09T22:25:31.124Z,1.43
2023-05-09T22:27:59.088Z,1.40
2023-05-09T22:30:27.111Z,1.43
2023-05-09T22:32:54.958Z,1.80
2023-05-09T22:35:24.461Z,1.50
2023-05-09T22:37:52.381Z,1.60
2023-05-09T22:40:20.263Z,1.60
2023-05-09T22:42:48.143Z,1.50
2023-05-09T22:45:15.954Z,1.60
2023-05-09T22:47:44.527Z,1.50
2023-05-09T22:50:12.940Z,1.60
2023-05-09T22:52:42.206Z,1.80
2023-05-09T22:55:10.355Z,1.67
2023-05-09T22:57:38.124Z,1.77
2023-05-09T23:00:07.251Z,1.60
2023-05-09T23:02:35.124Z,1.90
2023-05-09T23:05:03.297Z,1.77
2023-05-09T23:07:31.212Z,1.90
2023-05-09T23:10:00.525Z,1.70
2023-05-09T23:12:28.292Z,1.90
2023-05-09T23:14:56.076Z,2.00
2023-05-09T23:17:24.389Z,1.70
2023-05-09T23:19:52.232Z,1.67
2023-05-09T23:22:20.065Z,1.87
2023-05-09T23:24:48.050Z,1.60
2023-05-09T23:27:17.146Z,2.10
2023-05-09T23:29:44.897Z,1.60
2023-05-09T23:32:12.622Z,1.77
2023-05-09T23:34:40.382Z,1.50
2023-05-09T23:37:08.384Z,1.60
2023-05-09T23:39:36.209Z,1.63
2023-05-09T23:42:04.066Z,1.50
2023-05-09T23:44:33.183Z,1.50
2023-05-09T23:47:01.847Z,1.33
2023-05-09T23:49:30.158Z,1.50
2023-05-09T23:51:57.954Z,1.30
2023-05-09T23:54:26.895Z,1.60
2023-05-09T23:56:56.319Z,1.30
2023-05-09T23:59:24.127Z,1.50
